<?xml version="1.0" encoding="UTF-8" standalone="no" ?>
<gpx xmlns="http://www.topografix.com/GPX/1/1" xmlns:xsi="http://www.w3.org/2001/XMLSchema-instance" xsi:schemaLocation="http://www.topografix.com/GPX/1/1 http://www.topografix.com/GPX/1/1/gpx.xsd" version="1.1" creator="VisuGPX - https://www.visugpx.com">
  <metadata>
    <name>luzech 6 descentes</name>
    <desc><![CDATA[parcours typé enduro avec de belles descentes]]></desc>
  </metadata>
  <trk>
    <name><![CDATA[2014-04-01-08-18-57]]></name>
    <trkseg>
      <trkpt lat="44.44447" lon="1.30056">
        <ele>149.944</ele>
        <time>2014-04-01T10:39:20Z</time>
      </trkpt>
      <trkpt lat="44.44435" lon="1.30066">
        <ele>150.564</ele>
        <time>2014-04-01T10:39:26Z</time>
      </trkpt>
      <trkpt lat="44.44423" lon="1.30081">
        <ele>154.136</ele>
        <time>2014-04-01T10:39:34Z</time>
      </trkpt>
      <trkpt lat="44.44413" lon="1.30095">
        <ele>158.406</ele>
        <time>2014-04-01T10:39:42Z</time>
      </trkpt>
      <trkpt lat="44.44401" lon="1.30109">
        <ele>160.845</ele>
        <time>2014-04-01T10:39:51Z</time>
      </trkpt>
      <trkpt lat="44.44393" lon="1.30116">
        <ele>161.855</ele>
        <time>2014-04-01T10:39:57Z</time>
      </trkpt>
      <trkpt lat="44.44384" lon="1.30125">
        <ele>163.786</ele>
        <time>2014-04-01T10:40:03Z</time>
      </trkpt>
      <trkpt lat="44.44374" lon="1.30135">
        <ele>166.415</ele>
        <time>2014-04-01T10:40:10Z</time>
      </trkpt>
      <trkpt lat="44.44366" lon="1.3014">
        <ele>167.525</ele>
        <time>2014-04-01T10:40:15Z</time>
      </trkpt>
      <trkpt lat="44.44356" lon="1.30147">
        <ele>169.476</ele>
        <time>2014-04-01T10:40:22Z</time>
      </trkpt>
      <trkpt lat="44.44346" lon="1.30154">
        <ele>171.206</ele>
        <time>2014-04-01T10:40:28Z</time>
      </trkpt>
      <trkpt lat="44.44336" lon="1.30163">
        <ele>172.796</ele>
        <time>2014-04-01T10:40:35Z</time>
      </trkpt>
      <trkpt lat="44.44325" lon="1.30172">
        <ele>173.175</ele>
        <time>2014-04-01T10:40:42Z</time>
      </trkpt>
      <trkpt lat="44.44315" lon="1.3018">
        <ele>173.535</ele>
        <time>2014-04-01T10:40:49Z</time>
      </trkpt>
      <trkpt lat="44.44305" lon="1.30188">
        <ele>175.326</ele>
        <time>2014-04-01T10:40:56Z</time>
      </trkpt>
      <trkpt lat="44.44293" lon="1.30192">
        <ele>174.924</ele>
        <time>2014-04-01T10:41:03Z</time>
      </trkpt>
      <trkpt lat="44.44277" lon="1.30199">
        <ele>174.944</ele>
        <time>2014-04-01T10:41:12Z</time>
      </trkpt>
      <trkpt lat="44.44266" lon="1.30206">
        <ele>176.265</ele>
        <time>2014-04-01T10:41:19Z</time>
      </trkpt>
      <trkpt lat="44.44254" lon="1.30215">
        <ele>177.084</ele>
        <time>2014-04-01T10:41:26Z</time>
      </trkpt>
      <trkpt lat="44.4424" lon="1.30225">
        <ele>179.505</ele>
        <time>2014-04-01T10:41:34Z</time>
      </trkpt>
      <trkpt lat="44.4423" lon="1.30232">
        <ele>181.205</ele>
        <time>2014-04-01T10:41:40Z</time>
      </trkpt>
      <trkpt lat="44.4422" lon="1.30237">
        <ele>182.515</ele>
        <time>2014-04-01T10:41:46Z</time>
      </trkpt>
      <trkpt lat="44.44207" lon="1.3024">
        <ele>182.085</ele>
        <time>2014-04-01T10:41:54Z</time>
      </trkpt>
      <trkpt lat="44.44192" lon="1.3024">
        <ele>183.084</ele>
        <time>2014-04-01T10:42:01Z</time>
      </trkpt>
      <trkpt lat="44.44174" lon="1.30239">
        <ele>183.534</ele>
        <time>2014-04-01T10:42:08Z</time>
      </trkpt>
      <trkpt lat="44.44159" lon="1.30237">
        <ele>186.065</ele>
        <time>2014-04-01T10:42:16Z</time>
      </trkpt>
      <trkpt lat="44.44144" lon="1.30234">
        <ele>188.084</ele>
        <time>2014-04-01T10:42:24Z</time>
      </trkpt>
      <trkpt lat="44.4413" lon="1.30228">
        <ele>192.134</ele>
        <time>2014-04-01T10:42:32Z</time>
      </trkpt>
      <trkpt lat="44.4412" lon="1.30225">
        <ele>191.003</ele>
        <time>2014-04-01T10:42:40Z</time>
      </trkpt>
    </trkseg>
  </trk>
</gpx>